createdAt,value
2023-03-31T16:05:26.896Z,98717.56
2023-03-31T16:07:57.713Z,98718.41
2023-03-31T16:10:26.769Z,98714.72
2023-03-31T16:12:56.234Z,98723.56
2023-03-31T16:15:31.765Z,98708.19
2023-03-31T16:18:02.306Z,98717.03
2023-03-31T16:20:32.910Z,98714.34
2023-03-31T16:23:03.911Z,98718.50
2023-03-31T16:25:32.701Z,98712.34
2023-03-31T16:28:01.880Z,98709.84
2023-03-31T16:30:35.761Z,98708.19
2023-03-31T16:33:04.868Z,98711.88
2023-03-31T16:35:33.753Z,98713.53
2023-03-31T16:38:03.240Z,98709.22
2023-03-31T16:40:32.919Z,98709.56
2023-03-31T16:43:12.071Z,98707.09
2023-03-31T16:45:40.544Z,98698.06
2023-03-31T16:48:16.345Z,98709.56
2023-03-31T16:50:45.593Z,98710.59
2023-03-31T16:53:15.616Z,98703.41
2023-03-31T16:55:43.956Z,98699.09
2023-03-31T16:58:12.353Z,98708.75
2023-03-31T17:00:41.995Z,98704.59
2023-03-31T17:03:11.198Z,98706.25
2023-03-31T17:05:39.704Z,98704.44
2023-03-31T17:08:08.672Z,98704.25
2023-03-31T17:10:38.805Z,98708.91
2023-03-31T17:13:07.062Z,98698.25
2023-03-31T17:15:36.483Z,98703.97
2023-03-31T17:18:05.267Z,98705.63
2023-03-31T17:20:34.396Z,98701.09
2023-03-31T17:23:02.625Z,98708.91
2023-03-31T17:25:31.272Z,98704.59
2023-03-31T17:28:00.699Z,98695.56
2023-03-31T17:30:28.878Z,98694.75
2023-03-31T17:32:57.571Z,98693.09
2023-03-31T17:35:26.022Z,98689.25
2023-03-31T17:37:55.370Z,98690.25
2023-03-31T17:40:24.043Z,98685.75
2023-03-31T17:42:52.705Z,98690.25
2023-03-31T17:45:22.255Z,98683.25
2023-03-31T17:47:50.480Z,98685.09
2023-03-31T17:50:19.792Z,98679.31
2023-03-31T17:52:47.955Z,98676.63
2023-03-31T17:55:16.247Z,98681.97
2023-03-31T17:57:44.440Z,98686.47
2023-03-31T18:00:15.234Z,98683.81
2023-03-31T18:02:44.920Z,98674.78
2023-03-31T18:05:13.207Z,98679.50
2023-03-31T18:07:41.534Z,98685.00
2023-03-31T18:10:10.813Z,98677.00
2023-03-31T18:12:38.925Z,98678.03
2023-03-31T18:15:07.896Z,98670.19
2023-03-31T18:17:36.635Z,98669.56
2023-03-31T18:20:06.871Z,98672.59
2023-03-31T18:22:34.975Z,98674.22
2023-03-31T18:25:03.171Z,98672.38
2023-03-31T18:27:31.806Z,98667.25
2023-03-31T18:29:59.838Z,98666.59
2023-03-31T18:32:28.540Z,98665.59
2023-03-31T18:34:57.364Z,98665.41
2023-03-31T18:37:27.418Z,98662.63
2023-03-31T18:39:56.041Z,98659.59
2023-03-31T18:42:25.827Z,98662.28
2023-03-31T18:44:54.019Z,98658.97
2023-03-31T18:47:22.500Z,98653.81
2023-03-31T18:49:53.918Z,98658.31
2023-03-31T18:52:22.278Z,98659.50
2023-03-31T18:54:51.816Z,98655.84
2023-03-31T18:57:19.998Z,98648.22
2023-03-31T18:59:48.310Z,98650.88
2023-03-31T19:02:18.156Z,98644.53
2023-03-31T19:04:46.928Z,98640.84
2023-03-31T19:07:15.281Z,98640.84
2023-03-31T19:09:43.409Z,98640.84
2023-03-31T19:12:12.962Z,98636.72
2023-03-31T19:14:41.469Z,98639.38
2023-03-31T19:17:09.601Z,98630.38
2023-03-31T19:19:37.988Z,98626.69
2023-03-31T19:22:06.049Z,98631.41
2023-03-31T19:24:34.347Z,98627.72
2023-03-31T19:27:02.764Z,98631.19
2023-03-31T19:29:32.818Z,98620.53
2023-03-31T19:32:01.150Z,98628.53
2023-03-31T19:34:29.388Z,98629.34
2023-03-31T19:36:57.743Z,98628.34
2023-03-31T19:39:28.252Z,98628.53
2023-03-31T19:41:56.293Z,98625.03
2023-03-31T19:44:24.338Z,98621.34
2023-03-31T19:46:53.766Z,98618.53
2023-03-31T19:49:21.881Z,98615.84
2023-03-31T19:51:49.948Z,98611.50
2023-03-31T19:54:17.968Z,98616.03
2023-03-31T19:56:46.231Z,98611.72
2023-03-31T19:59:14.558Z,98610.88
2023-03-31T20:01:42.743Z,98610.06
2023-03-31T20:04:14.428Z,98614.75
2023-03-31T20:06:42.543Z,98614.28
2023-03-31T20:09:10.685Z,98616.94
2023-03-31T20:11:39.747Z,98617.13
2023-03-31T20:14:08.289Z,98611.81
2023-03-31T20:16:36.421Z,98617.28
2023-03-31T20:19:06.289Z,98613.81
2023-03-31T20:21:37.247Z,98613.63
2023-03-31T20:24:05.867Z,98604.78
2023-03-31T20:26:34.566Z,98607.47
2023-03-31T20:29:04.069Z,98602.94
2023-03-31T20:31:33.834Z,98595.16
2023-03-31T20:34:02.179Z,98598.00
2023-03-31T20:36:32.020Z,98594.50
2023-03-31T20:39:04.333Z,98596.34
2023-03-31T20:41:32.698Z,98605.16
2023-03-31T20:44:00.867Z,98597.16
2023-03-31T20:46:29.647Z,98604.34
2023-03-31T20:48:58.512Z,98606.19
2023-03-31T20:51:27.833Z,98604.34
2023-03-31T20:53:56.706Z,98587.50
2023-03-31T20:56:27.720Z,98592.03
2023-03-31T20:58:59.045Z,98594.69
2023-03-31T21:01:27.729Z,98595.72
2023-03-31T21:03:59.163Z,98605.53
2023-03-31T21:06:27.777Z,98585.22
2023-03-31T21:08:57.430Z,98585.22
2023-03-31T21:11:27.565Z,98589.56
2023-03-31T21:13:55.905Z,98586.03
2023-03-31T21:16:24.288Z,98579.88
2023-03-31T21:18:54.905Z,98590.53
2023-03-31T21:21:25.011Z,98595.25
2023-03-31T21:23:53.423Z,98594.41
2023-03-31T21:26:22.200Z,98589.44
2023-03-31T21:28:54.327Z,98590.28
2023-03-31T21:31:24.252Z,98596.63
2023-03-31T21:33:53.040Z,98593.97
2023-03-31T21:36:23.160Z,98601.94
2023-03-31T21:38:53.012Z,98595.75
2023-03-31T21:41:22.770Z,98597.44
2023-03-31T21:43:52.308Z,98593.28
2023-03-31T21:46:21.401Z,98587.16
2023-03-31T21:48:49.540Z,98596.31
2023-03-31T21:51:17.956Z,98599.66
2023-03-31T21:53:46.123Z,98594.31
2023-03-31T21:56:14.261Z,98593.66
2023-03-31T21:58:42.326Z,98589.97
2023-03-31T22:01:12.292Z,98585.66
2023-03-31T22:03:42.435Z,98586.69
2023-03-31T22:06:11.345Z,98591.19
2023-03-31T22:08:39.763Z,98588.53
2023-03-31T22:11:08.809Z,98583.19
2023-03-31T22:13:37.360Z,98585.84
2023-03-31T22:16:05.982Z,98586.69
2023-03-31T22:18:35.534Z,98585.00
2023-03-31T22:21:03.670Z,98578.84
2023-03-31T22:23:32.819Z,98589.50
2023-03-31T22:26:01.050Z,98582.53
2023-03-31T22:28:29.138Z,98578.22
2023-03-31T22:30:57.237Z,98571.22
2023-03-31T22:33:25.561Z,98574.72
2023-03-31T22:35:54.959Z,98570.38
2023-03-31T22:38:22.985Z,98565.88
2023-03-31T22:40:51.059Z,98572.22
2023-03-31T22:43:19.148Z,98569.75
2023-03-31T22:45:47.328Z,98560.94
2023-03-31T22:48:15.432Z,98568.94
2023-03-31T22:50:43.997Z,98565.41
2023-03-31T22:53:13.463Z,98559.25
2023-03-31T22:55:54.280Z,98562.94
2023-03-31T22:58:23.111Z,98561.09
2023-03-31T23:00:56.199Z,98558.81
2023-03-31T23:03:24.333Z,98549.16
2023-03-31T23:05:52.460Z,98548.69
2023-03-31T23:08:22.208Z,98550.69
2023-03-31T23:10:57.724Z,98551.56
2023-03-31T23:13:26.140Z,98546.22
2023-03-31T23:15:54.184Z,98542.72
2023-03-31T23:18:22.635Z,98545.75
2023-03-31T23:20:50.688Z,98546.75
2023-03-31T23:23:18.807Z,98547.56
2023-03-31T23:25:48.400Z,98550.63
2023-03-31T23:28:16.914Z,98553.09
2023-03-31T23:30:53.130Z,98547.78
2023-03-31T23:33:21.474Z,98551.63
2023-03-31T23:35:49.824Z,98546.13
2023-03-31T23:38:18.166Z,98552.28
2023-03-31T23:40:48.558Z,98554.75
2023-03-31T23:43:18.276Z,98544.91
2023-03-31T23:45:46.290Z,98552.75
2023-03-31T23:48:17.078Z,98541.06
2023-03-31T23:50:45.714Z,98544.91
2023-03-31T23:53:13.877Z,98547.41
2023-03-31T23:55:42.066Z,98549.88
2023-03-31T23:58:10.200Z,98548.03
